createdAt,value
2017-05-04T02:28:06.026Z,28.28
2017-05-04T02:30:32.687Z,30.63
2017-05-04T02:32:59.322Z,29.62
2017-05-04T02:35:25.962Z,28.77
2017-05-04T02:37:52.597Z,30.10
2017-05-04T02:40:19.263Z,27.12
2017-05-04T02:42:45.966Z,28.60
2017-05-04T02:45:12.598Z,28.82
2017-05-04T02:47:39.219Z,28.10
2017-05-04T02:50:05.835Z,26.08
2017-05-04T02:52:32.446Z,27.00
2017-05-04T02:54:59.751Z,28.17
2017-05-04T02:57:26.375Z,25.25
2017-05-04T02:59:52.991Z,26.35
2017-05-04T03:02:19.607Z,31.07
2017-05-04T03:04:46.218Z,26.25
2017-05-04T03:07:12.863Z,24.10
2017-05-04T03:09:39.475Z,23.05
2017-05-04T03:12:06.091Z,24.08
2017-05-04T03:14:32.728Z,29.27
2017-05-04T03:16:59.337Z,28.37
2017-05-04T03:19:25.955Z,28.10
2017-05-04T03:21:52.599Z,26.53
2017-05-04T03:24:19.211Z,25.97
2017-05-04T03:26:45.831Z,25.48
2017-05-04T03:29:12.474Z,28.58
2017-05-04T03:31:39.091Z,24.80
2017-05-04T03:34:05.707Z,26.82
2017-05-04T03:36:32.360Z,26.00
2017-05-04T03:38:58.980Z,28.98
2017-05-04T03:41:25.601Z,25.47
2017-05-04T03:43:52.243Z,24.37
2017-05-04T03:46:18.863Z,25.68
2017-05-04T03:48:45.475Z,25.38
2017-05-04T03:51:12.115Z,25.38
2017-05-04T03:53:38.731Z,26.22
2017-05-04T03:56:05.351Z,25.97
2017-05-04T03:58:32.064Z,25.33
2017-05-04T04:00:58.683Z,25.85
2017-05-04T04:03:25.303Z,26.80
2017-05-04T04:05:51.942Z,29.22
2017-05-04T04:08:18.567Z,27.55
2017-05-04T04:10:45.179Z,25.63
2017-05-04T04:13:11.819Z,27.50
2017-05-04T04:15:38.439Z,27.27
2017-05-04T04:18:05.056Z,25.53
2017-05-04T04:20:32.124Z,25.47
2017-05-04T04:22:58.742Z,25.68
2017-05-04T04:25:25.360Z,24.02
2017-05-04T04:27:51.995Z,24.20
2017-05-04T04:30:18.609Z,24.48
2017-05-04T04:32:45.226Z,24.67
2017-05-04T04:35:11.866Z,25.72
2017-05-04T04:37:38.487Z,25.52
2017-05-04T04:40:05.099Z,27.25
2017-05-04T04:42:31.735Z,26.38
2017-05-04T04:44:58.619Z,24.95
2017-05-04T04:47:25.239Z,26.02
2017-05-04T04:49:51.987Z,24.53
2017-05-04T04:52:18.599Z,27.42
2017-05-04T04:54:45.215Z,24.45
2017-05-04T04:57:11.867Z,27.77
2017-05-04T04:59:38.478Z,27.08
2017-05-04T05:02:05.099Z,27.88
2017-05-04T05:04:31.741Z,27.17
2017-05-04T05:06:58.467Z,27.88
2017-05-04T05:09:25.082Z,28.88
2017-05-04T05:11:51.734Z,28.20
2017-05-04T05:14:18.354Z,28.00
2017-05-04T05:16:45.028Z,27.48
2017-05-04T05:19:11.697Z,26.17
2017-05-04T05:21:38.410Z,28.25
2017-05-04T05:24:05.023Z,29.67
2017-05-04T05:26:32.095Z,30.02
2017-05-04T05:28:58.714Z,29.77
2017-05-04T05:31:25.429Z,30.45
2017-05-04T05:33:52.082Z,31.32
2017-05-04T05:36:18.699Z,32.12
2017-05-04T05:38:45.314Z,30.63
2017-05-04T05:41:11.954Z,33.00
2017-05-04T05:43:38.567Z,30.23
2017-05-04T05:46:05.189Z,32.05
2017-05-04T05:48:31.835Z,33.23
2017-05-04T05:50:58.451Z,34.48
2017-05-04T05:53:25.070Z,35.33
2017-05-04T05:55:51.796Z,38.48
2017-05-04T05:58:18.503Z,39.30
2017-05-04T06:00:45.122Z,40.35
2017-05-04T06:03:11.762Z,38.93
2017-05-04T06:05:38.420Z,40.10
2017-05-04T06:08:05.097Z,38.37
2017-05-04T06:10:31.743Z,40.25
2017-05-04T06:12:58.358Z,36.42
2017-05-04T06:15:24.983Z,37.63
2017-05-04T06:17:51.623Z,37.05
2017-05-04T06:20:18.238Z,44.27
2017-05-04T06:22:44.866Z,37.20
2017-05-04T06:25:11.527Z,35.28
2017-05-04T06:27:38.147Z,35.65
2017-05-04T06:30:04.767Z,37.80
2017-05-04T06:32:31.423Z,37.87
2017-05-04T06:34:58.051Z,36.83
2017-05-04T06:37:24.666Z,35.93
2017-05-04T06:39:51.307Z,34.80
2017-05-04T06:42:17.923Z,35.33
2017-05-04T06:44:44.542Z,37.17
2017-05-04T06:47:11.178Z,37.50
2017-05-04T06:49:37.799Z,37.30
2017-05-04T06:52:04.418Z,39.18
2017-05-04T06:54:31.133Z,36.27
2017-05-04T06:56:57.743Z,35.77
2017-05-04T06:59:24.360Z,36.05
2017-05-04T07:01:51.002Z,34.48
2017-05-04T07:04:17.627Z,36.48
2017-05-04T07:06:44.243Z,37.43
2017-05-04T07:09:10.879Z,36.97
2017-05-04T07:11:37.491Z,36.52
2017-05-04T07:14:04.163Z,32.77
2017-05-04T07:16:30.815Z,35.73
2017-05-04T07:18:57.428Z,34.90
2017-05-04T07:21:24.042Z,35.02
2017-05-04T07:23:50.675Z,33.37
2017-05-04T07:26:17.291Z,29.80
2017-05-04T07:28:43.907Z,29.17
2017-05-04T07:31:10.617Z,29.10
2017-05-04T07:33:37.239Z,23.48
2017-05-04T07:36:03.855Z,25.38
2017-05-04T07:38:30.499Z,27.77
2017-05-04T07:40:57.115Z,27.72
2017-05-04T07:43:23.735Z,26.33
2017-05-04T07:45:50.383Z,23.42
2017-05-04T07:48:17.090Z,23.63
2017-05-04T07:50:43.705Z,23.50
2017-05-04T07:53:10.354Z,26.83
2017-05-04T07:55:36.971Z,25.95
2017-05-04T07:58:03.588Z,23.13
2017-05-04T08:00:30.696Z,23.52
2017-05-04T08:02:57.312Z,24.60
2017-05-04T08:05:23.938Z,23.57
2017-05-04T08:07:50.575Z,22.98
2017-05-04T08:10:17.194Z,22.25
2017-05-04T08:12:43.815Z,23.55
2017-05-04T08:15:10.459Z,24.58
2017-05-04T08:17:37.071Z,21.87
2017-05-04T08:20:03.682Z,20.50
2017-05-04T08:22:30.410Z,22.28
2017-05-04T08:24:57.032Z,20.27
2017-05-04T08:27:23.651Z,21.68
2017-05-04T08:29:50.293Z,21.55
2017-05-04T08:32:16.912Z,19.52
2017-05-04T08:34:43.531Z,22.55
2017-05-04T08:37:10.171Z,22.80
2017-05-04T08:39:36.787Z,20.15
2017-05-04T08:42:03.460Z,18.75
2017-05-04T08:44:30.095Z,20.18
2017-05-04T08:46:56.712Z,20.53
2017-05-04T08:49:23.328Z,19.57
2017-05-04T08:51:50.013Z,19.67
2017-05-04T08:54:16.626Z,18.15
2017-05-04T08:56:43.251Z,18.60
2017-05-04T08:59:09.886Z,17.63
2017-05-04T09:01:36.507Z,18.55
2017-05-04T09:04:03.120Z,19.37
2017-05-04T09:06:29.848Z,22.93
2017-05-04T09:08:56.471Z,21.78
2017-05-04T09:11:23.082Z,23.15
2017-05-04T09:13:49.737Z,21.83
2017-05-04T09:16:16.357Z,20.75
2017-05-04T09:18:43.044Z,20.85
2017-05-04T09:21:09.707Z,19.75
2017-05-04T09:23:36.320Z,20.73
2017-05-04T09:26:02.931Z,22.45
2017-05-04T09:28:29.567Z,19.23
2017-05-04T09:30:56.179Z,20.23
2017-05-04T09:33:22.798Z,18.87
2017-05-04T09:35:49.442Z,18.93
2017-05-04T09:38:16.071Z,19.73
2017-05-04T09:40:42.682Z,17.97
2017-05-04T09:43:09.394Z,20.60
2017-05-04T09:45:36.055Z,21.02
2017-05-04T09:48:02.676Z,19.38
2017-05-04T09:50:29.319Z,20.17
2017-05-04T09:52:55.934Z,20.15
2017-05-04T09:55:22.550Z,19.92
2017-05-04T09:57:49.268Z,19.13
2017-05-04T10:00:15.906Z,20.43
2017-05-04T10:02:42.531Z,23.37
2017-05-04T10:05:09.174Z,29.77
2017-05-04T10:07:35.803Z,28.30
2017-05-04T10:10:02.416Z,31.48
2017-05-04T10:12:29.052Z,29.67
2017-05-04T10:14:55.676Z,31.05
2017-05-04T10:17:22.291Z,30.48
2017-05-04T10:19:48.947Z,28.90
2017-05-04T10:22:15.558Z,29.65
2017-05-04T10:24:42.184Z,31.72
2017-05-04T10:27:08.867Z,27.78
2017-05-04T10:29:35.484Z,29.30
2017-05-04T10:32:02.423Z,30.88
2017-05-04T10:34:29.269Z,28.73
2017-05-04T10:36:55.928Z,28.25
2017-05-04T10:39:23.406Z,31.58
2017-05-04T10:41:50.411Z,27.73
2017-05-04T10:44:17.666Z,31.22
2017-05-04T10:46:44.610Z,25.82
2017-05-04T10:49:11.328Z,36.17
2017-05-04T10:51:38.195Z,27.05
2017-05-04T10:54:05.142Z,30.88
2017-05-04T10:56:32.001Z,25.05
2017-05-04T10:58:58.651Z,24.50
2017-05-04T11:01:25.510Z,26.75
2017-05-04T11:03:52.996Z,26.05
2017-05-04T11:06:20.490Z,31.47
2017-05-04T11:08:49.304Z,20.07
2017-05-04T11:11:19.911Z,19.42
2017-05-04T11:13:49.006Z,27.60
2017-05-04T11:16:15.746Z,32.95
2017-05-04T11:18:42.689Z,19.92
2017-05-04T11:21:09.639Z,31.57
2017-05-04T11:23:37.266Z,21.22
2017-05-04T11:26:03.962Z,21.23
2017-05-04T11:28:30.583Z,19.65
2017-05-04T11:30:57.317Z,32.17
2017-05-04T11:33:24.473Z,24.17
2017-05-04T11:35:51.214Z,20.60
2017-05-04T11:38:17.830Z,20.22
2017-05-04T11:40:44.662Z,20.58
2017-05-04T11:43:11.438Z,25.08
2017-05-04T11:45:38.288Z,19.23
2017-05-04T11:48:05.107Z,17.57
2017-05-04T11:50:31.754Z,17.27
2017-05-04T11:52:58.817Z,13.75
2017-05-04T11:55:26.825Z,22.40
2017-05-04T11:57:55.951Z,14.22
2017-05-04T12:00:24.878Z,20.15
2017-05-04T12:02:51.583Z,13.48
2017-05-04T12:05:18.872Z,12.07
2017-05-04T12:07:45.579Z,14.80
2017-05-04T12:10:12.351Z,16.38
2017-05-04T12:12:39.042Z,10.53
2017-05-04T12:15:06.027Z,13.88
2017-05-04T12:17:32.646Z,11.25
2017-05-04T12:19:59.263Z,12.13
2017-05-04T12:22:25.903Z,10.90
2017-05-04T12:24:52.518Z,14.30
2017-05-04T12:27:19.135Z,11.77
2017-05-04T12:29:45.781Z,10.87
2017-05-04T12:32:12.404Z,10.08
2017-05-04T12:34:39.027Z,10.92
2017-05-04T12:37:05.664Z,23.33
2017-05-04T12:39:32.279Z,10.53
2017-05-04T12:41:58.936Z,11.55
2017-05-04T12:44:25.582Z,10.63
2017-05-04T12:46:52.195Z,17.23
2017-05-04T12:49:18.807Z,13.65
2017-05-04T12:51:45.459Z,18.22
2017-05-04T12:54:12.074Z,10.22
2017-05-04T12:56:38.694Z,22.17
2017-05-04T12:59:05.336Z,10.27
2017-05-04T13:01:31.950Z,12.12
2017-05-04T13:03:58.566Z,11.30
2017-05-04T13:06:25.253Z,11.35
2017-05-04T13:08:51.872Z,27.98
2017-05-04T13:11:18.486Z,13.00
2017-05-04T13:13:45.171Z,13.23
2017-05-04T13:16:11.786Z,12.92
2017-05-04T13:18:38.400Z,36.52
2017-05-04T13:21:05.043Z,29.65
2017-05-04T13:23:31.665Z,15.55
2017-05-04T13:25:58.288Z,15.57
2017-05-04T13:28:24.902Z,15.70
2017-05-04T13:30:51.607Z,18.15
2017-05-04T13:33:18.251Z,23.52
2017-05-04T13:35:44.928Z,19.25
2017-05-04T13:38:11.630Z,19.00
2017-05-04T13:40:38.268Z,19.90
2017-05-04T13:43:04.889Z,20.30
2017-05-04T13:45:31.503Z,26.67
2017-05-04T13:47:58.162Z,23.92
2017-05-04T13:50:24.775Z,21.05
2017-05-04T13:52:51.396Z,22.95
2017-05-04T13:55:18.039Z,24.18
2017-05-04T13:57:44.667Z,23.67
2017-05-04T14:00:11.291Z,30.62
2017-05-04T14:02:37.931Z,26.63
2017-05-04T14:05:04.543Z,23.53
2017-05-04T14:07:31.159Z,23.62
2017-05-04T14:09:57.807Z,28.13
2017-05-04T14:12:24.422Z,23.42
2017-05-04T14:14:51.046Z,23.93
2017-05-04T14:17:17.704Z,25.93
2017-05-04T14:19:44.318Z,25.58
2017-05-04T14:22:10.982Z,35.22
2017-05-04T14:24:37.620Z,30.17
2017-05-04T14:27:04.232Z,29.88
2017-05-04T14:29:30.862Z,29.07
2017-05-04T14:31:57.543Z,28.60
2017-05-04T14:34:24.209Z,27.95
2017-05-04T14:36:50.996Z,29.63
2017-05-04T14:39:17.729Z,27.40
2017-05-04T14:41:44.439Z,28.13
2017-05-04T14:44:11.067Z,36.92
2017-05-04T14:46:37.707Z,32.60
2017-05-04T14:49:04.350Z,32.05
2017-05-04T14:51:30.991Z,32.32
2017-05-04T14:53:57.631Z,32.13
2017-05-04T14:56:24.268Z,31.42
2017-05-04T14:58:50.883Z,37.73
2017-05-04T15:01:17.527Z,34.58
2017-05-04T15:03:44.139Z,36.92
2017-05-04T15:06:10.755Z,33.77
2017-05-04T15:08:37.395Z,37.03
2017-05-04T15:11:04.049Z,32.90
2017-05-04T15:13:30.684Z,37.33
2017-05-04T15:15:57.343Z,36.32
2017-05-04T15:18:24.069Z,38.05
2017-05-04T15:20:50.727Z,37.62
2017-05-04T15:23:17.355Z,36.53
2017-05-04T15:25:44.087Z,34.75
2017-05-04T15:28:10.714Z,33.45
2017-05-04T15:30:37.999Z,34.53
2017-05-04T15:33:04.611Z,36.92
2017-05-04T15:35:31.227Z,37.20
2017-05-04T15:37:57.868Z,34.17
2017-05-04T15:40:24.486Z,34.77
2017-05-04T15:42:51.100Z,34.55
2017-05-04T15:45:17.735Z,39.18
2017-05-04T15:47:44.348Z,36.38
2017-05-04T15:50:10.972Z,37.20
2017-05-04T15:52:37.627Z,37.27
2017-05-04T15:55:04.246Z,34.50
2017-05-04T15:57:30.893Z,33.60
2017-05-04T15:59:57.515Z,32.52
2017-05-04T16:02:24.129Z,32.70
2017-05-04T16:04:50.771Z,34.33
2017-05-04T16:07:17.388Z,36.17
2017-05-04T16:09:44.003Z,33.98
2017-05-04T16:12:10.639Z,35.75
2017-05-04T16:14:37.250Z,32.28
2017-05-04T16:17:03.866Z,34.15
2017-05-04T16:19:30.515Z,35.30
2017-05-04T16:21:57.130Z,33.60
2017-05-04T16:24:23.747Z,34.50
2017-05-04T16:26:50.358Z,32.35
2017-05-04T16:29:16.972Z,33.47
2017-05-04T16:31:43.638Z,32.10
2017-05-04T16:34:10.323Z,34.58
2017-05-04T16:36:36.938Z,33.07
2017-05-04T16:39:03.579Z,34.17
2017-05-04T16:41:30.210Z,32.17
2017-05-04T16:43:56.826Z,33.12
2017-05-04T16:46:23.462Z,32.57
2017-05-04T16:48:50.074Z,32.53
2017-05-04T16:51:16.691Z,32.98
2017-05-04T16:53:43.334Z,33.33
2017-05-04T16:56:09.947Z,34.53
2017-05-04T16:58:36.568Z,33.00
2017-05-04T17:01:03.239Z,33.58
2017-05-04T17:03:29.868Z,34.52
2017-05-04T17:05:56.482Z,32.40
2017-05-04T17:08:23.125Z,34.03
2017-05-04T17:10:49.747Z,36.48
2017-05-04T17:13:16.367Z,36.35
2017-05-04T17:15:43.003Z,35.65
2017-05-04T17:18:09.617Z,35.97
2017-05-04T17:20:36.231Z,36.03
2017-05-04T17:23:02.931Z,37.20
2017-05-04T17:25:29.551Z,37.25
2017-05-04T17:27:56.163Z,37.65
2017-05-04T17:30:22.826Z,38.07
2017-05-04T17:32:49.434Z,33.95
2017-05-04T17:35:16.046Z,33.52
2017-05-04T17:37:42.682Z,33.75
2017-05-04T17:40:09.311Z,32.18
2017-05-04T17:42:35.924Z,31.97
2017-05-04T17:45:02.562Z,36.18
2017-05-04T17:47:29.176Z,34.57
2017-05-04T17:49:55.791Z,29.85
2017-05-04T17:52:22.428Z,32.65
2017-05-04T17:54:49.039Z,29.98
2017-05-04T17:57:15.706Z,27.08
2017-05-04T17:59:42.347Z,29.65
2017-05-04T18:02:08.959Z,27.62
2017-05-04T18:04:35.574Z,25.53
2017-05-04T18:07:02.210Z,25.13
2017-05-04T18:09:28.828Z,26.08
2017-05-04T18:11:55.541Z,22.55
2017-05-04T18:14:22.178Z,21.78
2017-05-04T18:16:48.790Z,24.43
2017-05-04T18:19:15.403Z,26.60
2017-05-04T18:21:42.047Z,23.50
2017-05-04T18:24:08.675Z,24.17
2017-05-04T18:26:35.319Z,21.73
2017-05-04T18:29:01.956Z,23.05
2017-05-04T18:31:28.579Z,22.92
2017-05-04T18:33:55.196Z,26.28
2017-05-04T18:36:21.838Z,24.17
2017-05-04T18:38:48.531Z,25.00
2017-05-04T18:41:15.150Z,26.28
2017-05-04T18:43:41.798Z,26.45
2017-05-04T18:46:08.450Z,25.57
2017-05-04T18:48:35.066Z,24.55
2017-05-04T18:51:01.710Z,26.50
2017-05-04T18:53:28.328Z,24.75
2017-05-04T18:55:54.949Z,25.37
2017-05-04T18:58:21.611Z,25.18
2017-05-04T19:00:48.283Z,25.50
2017-05-04T19:03:14.903Z,25.05
2017-05-04T19:05:41.551Z,24.53
2017-05-04T19:08:08.176Z,26.97
2017-05-04T19:10:34.803Z,27.82
2017-05-04T19:13:01.447Z,22.93
2017-05-04T19:15:28.059Z,23.67
2017-05-04T19:17:54.697Z,25.38
2017-05-04T19:20:21.331Z,24.00
2017-05-04T19:22:47.947Z,23.92
2017-05-04T19:25:14.559Z,24.07
2017-05-04T19:27:41.209Z,23.95
2017-05-04T19:30:07.831Z,23.20
2017-05-04T19:32:34.451Z,24.40
2017-05-04T19:35:01.088Z,21.40
2017-05-04T19:37:27.706Z,23.52
2017-05-04T19:39:54.323Z,42.38
2017-05-04T19:42:20.960Z,28.83
2017-05-04T19:44:47.579Z,23.80
2017-05-04T19:47:14.202Z,22.28
2017-05-04T19:49:40.839Z,23.22
2017-05-04T19:52:07.465Z,22.57
2017-05-04T19:54:34.086Z,23.48
2017-05-04T19:57:00.732Z,23.48
2017-05-04T19:59:27.498Z,24.52
2017-05-04T20:01:54.114Z,22.55
2017-05-04T20:04:20.753Z,23.77
2017-05-04T20:06:47.378Z,26.47
2017-05-04T20:09:14.010Z,30.22
2017-05-04T20:11:40.637Z,24.28
2017-05-04T20:14:07.251Z,28.85
2017-05-04T20:16:33.886Z,24.20
2017-05-04T20:19:00.498Z,25.77
2017-05-04T20:21:27.115Z,24.02
2017-05-04T20:23:53.758Z,24.23
2017-05-04T20:26:20.372Z,24.85
2017-05-04T20:28:46.990Z,26.27
2017-05-04T20:31:13.603Z,25.82
2017-05-04T20:33:40.222Z,24.27
2017-05-04T20:36:06.933Z,25.27
2017-05-04T20:38:33.550Z,26.63
2017-05-04T20:41:00.167Z,25.80
2017-05-04T20:43:26.803Z,25.32
2017-05-04T20:45:53.422Z,27.60
2017-05-04T20:48:20.034Z,25.80
2017-05-04T20:50:46.667Z,26.80
2017-05-04T20:53:13.282Z,26.23
2017-05-04T20:55:39.943Z,25.58
2017-05-04T20:58:06.594Z,26.37
2017-05-04T21:00:33.211Z,26.60
2017-05-04T21:02:59.826Z,26.20
2017-05-04T21:05:26.458Z,26.15
2017-05-04T21:07:53.070Z,26.80
2017-05-04T21:10:19.683Z,26.97
2017-05-04T21:12:46.326Z,25.00
2017-05-04T21:15:12.940Z,26.95
2017-05-04T21:17:39.555Z,26.43
2017-05-04T21:20:06.194Z,26.75
2017-05-04T21:22:32.817Z,25.62
2017-05-04T21:24:59.509Z,25.33
2017-05-04T21:27:26.151Z,23.25
2017-05-04T21:29:52.774Z,26.98
2017-05-04T21:32:19.387Z,24.62
2017-05-04T21:34:46.035Z,26.82
2017-05-04T21:37:12.650Z,24.58
2017-05-04T21:39:39.266Z,25.85
2017-05-04T21:42:05.903Z,25.27
2017-05-04T21:44:32.523Z,24.48
2017-05-04T21:46:59.143Z,24.97
2017-05-04T21:49:26.170Z,25.22
2017-05-04T21:51:52.783Z,23.77
2017-05-04T21:54:19.455Z,23.68
2017-05-04T21:56:46.092Z,25.55
2017-05-04T21:59:12.706Z,24.95
2017-05-04T22:01:39.327Z,23.13
2017-05-04T22:04:06.223Z,24.33
2017-05-04T22:06:32.836Z,24.78
2017-05-04T22:08:59.454Z,24.17
2017-05-04T22:11:26.090Z,22.97
2017-05-04T22:13:52.710Z,23.82
2017-05-04T22:16:19.332Z,24.67
2017-05-04T22:18:45.967Z,22.72
2017-05-04T22:21:12.583Z,26.58
2017-05-04T22:23:39.195Z,25.12
2017-05-04T22:26:05.838Z,24.00
2017-05-04T22:28:32.452Z,23.15
2017-05-04T22:30:59.079Z,23.43
2017-05-04T22:33:25.714Z,22.67
2017-05-04T22:35:52.329Z,23.97
2017-05-04T22:38:18.942Z,22.62
2017-05-04T22:40:45.592Z,23.23
2017-05-04T22:43:12.215Z,21.93
2017-05-04T22:45:38.875Z,22.92
2017-05-04T22:48:05.558Z,20.53
2017-05-04T22:50:32.168Z,22.35
2017-05-04T22:52:58.783Z,22.73
2017-05-04T22:55:25.426Z,23.17
2017-05-04T22:57:52.052Z,22.27
2017-05-04T23:00:18.676Z,22.30
2017-05-04T23:02:45.335Z,22.58
2017-05-04T23:05:11.951Z,22.43
2017-05-04T23:07:38.655Z,22.23
2017-05-04T23:10:05.298Z,21.63
2017-05-04T23:12:31.916Z,21.88
2017-05-04T23:14:58.536Z,21.72
2017-05-04T23:17:25.187Z,21.23
2017-05-04T23:19:51.803Z,21.68
2017-05-04T23:22:18.418Z,21.52
2017-05-04T23:24:45.055Z,21.47
2017-05-04T23:27:11.682Z,20.80
2017-05-04T23:29:38.371Z,20.93
2017-05-04T23:32:05.008Z,18.63
2017-05-04T23:34:31.626Z,20.58
2017-05-04T23:36:58.247Z,21.50
